Homestown, Missouri
Current Conditions -  °F | °C
As of 10:53 AM on Thursday 23 Oct 2014 (Local Time) from KHKA Reporting Station
Clear Clear  
Wind Chill: 58°   Ceiling: Unl
Heat Index: 58°   Visibility: 10mi
Dew Point: 45°   Wind: 8mph
Humidity: 62%   Direction: 120°ESE
Pressure: 30.23"   Gusts: NA
Location:  36.3524°N, 89.8327°W
Report Text: KHKA 231553Z AUTO 12007KT 10SM CLR 14/07 A3023 RMK AO2 SLP235 T01440072
Loading
Personal Weather Stations






























Interactive Weather Map New forecast layout! Learn more

10-Day Weather Forecast

Advertisements
Track Severe Weather on mobile